sensor_id;sensor_type;location;lat;lon;timestamp;P1;durP1;ratioP1;P2;durP2;ratioP2
80340;SDS011;69656;44.498;0.166;2023-09-18T00:03:54;8.03;;;3.63;;
80340;SDS011;69656;44.498;0.166;2023-09-18T00:09:28;7.63;;;3.37;;
80340;SDS011;69656;44.498;0.166;2023-09-18T00:15:01;11.67;;;3.60;;
80340;SDS011;69656;44.498;0.166;2023-09-18T00:20:34;4.90;;;3.00;;
80340;SDS011;69656;44.498;0.166;2023-09-18T00:26:05;11.17;;;4.33;;
80340;SDS011;69656;44.498;0.166;2023-09-18T00:31:38;8.40;;;2.83;;
80340;SDS011;69656;44.498;0.166;2023-09-18T00:37:10;4.77;;;2.70;;
80340;SDS011;69656;44.498;0.166;2023-09-18T00:42:43;4.30;;;2.50;;
80340;SDS011;69656;44.498;0.166;2023-09-18T00:48:16;8.07;;;3.13;;
80340;SDS011;69656;44.498;0.166;2023-09-18T00:53:49;7.23;;;3.10;;
80340;SDS011;69656;44.498;0.166;2023-09-18T00:59:23;6.77;;;2.50;;
80340;SDS011;69656;44.498;0.166;2023-09-18T01:04:56;9.30;;;3.17;;
80340;SDS011;69656;44.498;0.166;2023-09-18T01:10:30;4.73;;;2.63;;
80340;SDS011;69656;44.498;0.166;2023-09-18T01:16:04;10.10;;;3.70;;
80340;SDS011;69656;44.498;0.166;2023-09-18T01:21:35;6.53;;;2.90;;
80340;SDS011;69656;44.498;0.166;2023-09-18T01:27:08;7.47;;;2.57;;
80340;SDS011;69656;44.498;0.166;2023-09-18T01:32:41;4.83;;;3.17;;
80340;SDS011;69656;44.498;0.166;2023-09-18T01:38:14;6.53;;;2.50;;
80340;SDS011;69656;44.498;0.166;2023-09-18T01:43:47;5.43;;;2.60;;
80340;SDS011;69656;44.498;0.166;2023-09-18T01:49:26;7.57;;;3.47;;
80340;SDS011;69656;44.498;0.166;2023-09-18T01:54:52;4.07;;;2.77;;
80340;SDS011;69656;44.498;0.166;2023-09-18T02:00:25;6.23;;;2.50;;
80340;SDS011;69656;44.498;0.166;2023-09-18T02:05:57;5.20;;;2.30;;
80340;SDS011;69656;44.498;0.166;2023-09-18T02:11:29;4.93;;;2.17;;
80340;SDS011;69656;44.498;0.166;2023-09-18T02:17:02;3.00;;;2.20;;
80340;SDS011;69656;44.498;0.166;2023-09-18T02:22:34;5.83;;;2.20;;
80340;SDS011;69656;44.498;0.166;2023-09-18T02:28:08;3.47;;;2.40;;
80340;SDS011;69656;44.498;0.166;2023-09-18T02:33:41;7.80;;;2.67;;
80340;SDS011;69656;44.498;0.166;2023-09-18T02:39:14;6.13;;;2.53;;
80340;SDS011;69656;44.498;0.166;2023-09-18T02:44:46;6.23;;;2.63;;
80340;SDS011;69656;44.498;0.166;2023-09-18T02:50:18;5.43;;;2.10;;
80340;SDS011;69656;44.498;0.166;2023-09-18T02:55:51;7.60;;;2.27;;
80340;SDS011;69656;44.498;0.166;2023-09-18T03:01:23;3.90;;;2.37;;
80340;SDS011;69656;44.498;0.166;2023-09-18T03:06:56;7.10;;;2.67;;
80340;SDS011;69656;44.498;0.166;2023-09-18T03:12:28;4.23;;;2.30;;
80340;SDS011;69656;44.498;0.166;2023-09-18T03:18:01;5.93;;;1.93;;
80340;SDS011;69656;44.498;0.166;2023-09-18T03:23:33;3.13;;;2.20;;
80340;SDS011;69656;44.498;0.166;2023-09-18T03:29:06;5.90;;;2.33;;
80340;SDS011;69656;44.498;0.166;2023-09-18T03:34:39;5.30;;;2.10;;
80340;SDS011;69656;44.498;0.166;2023-09-18T03:40:12;5.03;;;2.27;;
80340;SDS011;69656;44.498;0.166;2023-09-18T03:45:45;5.70;;;2.70;;
80340;SDS011;69656;44.498;0.166;2023-09-18T03:51:18;6.00;;;2.40;;
80340;SDS011;69656;44.498;0.166;2023-09-18T03:56:52;7.27;;;3.07;;
80340;SDS011;69656;44.498;0.166;2023-09-18T04:02:24;6.17;;;2.40;;
80340;SDS011;69656;44.498;0.166;2023-09-18T04:07:57;10.10;;;2.67;;
80340;SDS011;69656;44.498;0.166;2023-09-18T04:13:30;5.33;;;2.20;;
80340;SDS011;69656;44.498;0.166;2023-09-18T04:19:03;8.40;;;2.60;;
80340;SDS011;69656;44.498;0.166;2023-09-18T04:24:36;6.57;;;2.43;;
80340;SDS011;69656;44.498;0.166;2023-09-18T04:30:09;4.73;;;2.50;;
80340;SDS011;69656;44.498;0.166;2023-09-18T04:35:41;2.93;;;2.10;;
80340;SDS011;69656;44.498;0.166;2023-09-18T04:41:14;9.57;;;2.37;;
80340;SDS011;69656;44.498;0.166;2023-09-18T04:46:46;10.47;;;2.40;;
80340;SDS011;69656;44.498;0.166;2023-09-18T04:52:20;7.83;;;2.27;;
80340;SDS011;69656;44.498;0.166;2023-09-18T04:57:52;2.80;;;2.17;;
80340;SDS011;69656;44.498;0.166;2023-09-18T05:03:25;3.47;;;2.40;;
80340;SDS011;69656;44.498;0.166;2023-09-18T05:08:57;4.93;;;2.20;;
80340;SDS011;69656;44.498;0.166;2023-09-18T05:14:29;7.97;;;2.27;;
80340;SDS011;69656;44.498;0.166;2023-09-18T05:20:02;9.53;;;3.03;;
80340;SDS011;69656;44.498;0.166;2023-09-18T05:25:35;7.07;;;2.33;;
80340;SDS011;69656;44.498;0.166;2023-09-18T05:31:07;4.00;;;2.43;;
80340;SDS011;69656;44.498;0.166;2023-09-18T05:36:39;6.00;;;2.13;;
80340;SDS011;69656;44.498;0.166;2023-09-18T05:42:12;7.23;;;2.30;;
80340;SDS011;69656;44.498;0.166;2023-09-18T05:47:45;2.57;;;2.13;;
80340;SDS011;69656;44.498;0.166;2023-09-18T05:53:17;6.53;;;2.60;;
80340;SDS011;69656;44.498;0.166;2023-09-18T05:58:50;7.10;;;2.93;;
80340;SDS011;69656;44.498;0.166;2023-09-18T06:04:24;5.40;;;3.73;;
80340;SDS011;69656;44.498;0.166;2023-09-18T06:09:57;8.10;;;3.00;;
80340;SDS011;69656;44.498;0.166;2023-09-18T06:15:30;3.67;;;3.00;;
80340;SDS011;69656;44.498;0.166;2023-09-18T06:21:03;8.70;;;3.33;;
80340;SDS011;69656;44.498;0.166;2023-09-18T06:26:35;8.67;;;2.97;;
80340;SDS011;69656;44.498;0.166;2023-09-18T06:32:07;3.47;;;2.47;;
80340;SDS011;69656;44.498;0.166;2023-09-18T06:37:39;5.43;;;3.17;;
80340;SDS011;69656;44.498;0.166;2023-09-18T06:43:11;5.17;;;2.27;;
80340;SDS011;69656;44.498;0.166;2023-09-18T06:48:45;8.03;;;2.63;;
80340;SDS011;69656;44.498;0.166;2023-09-18T06:54:17;8.37;;;2.93;;
80340;SDS011;69656;44.498;0.166;2023-09-18T06:59:51;4.60;;;2.50;;
80340;SDS011;69656;44.498;0.166;2023-09-18T07:05:23;5.10;;;2.03;;
80340;SDS011;69656;44.498;0.166;2023-09-18T07:10:57;4.67;;;2.10;;
80340;SDS011;69656;44.498;0.166;2023-09-18T07:16:29;3.87;;;2.10;;
80340;SDS011;69656;44.498;0.166;2023-09-18T07:22:02;7.20;;;2.43;;
80340;SDS011;69656;44.498;0.166;2023-09-18T07:27:35;6.60;;;2.60;;
80340;SDS011;69656;44.498;0.166;2023-09-18T07:33:08;11.43;;;3.40;;
80340;SDS011;69656;44.498;0.166;2023-09-18T07:38:42;5.47;;;2.07;;
80340;SDS011;69656;44.498;0.166;2023-09-18T07:44:18;7.20;;;2.83;;
80340;SDS011;69656;44.498;0.166;2023-09-18T07:49:47;6.43;;;2.17;;
80340;SDS011;69656;44.498;0.166;2023-09-18T07:55:19;6.27;;;2.07;;
80340;SDS011;69656;44.498;0.166;2023-09-18T08:00:52;3.23;;;2.10;;
80340;SDS011;69656;44.498;0.166;2023-09-18T08:06:24;7.93;;;1.73;;
80340;SDS011;69656;44.498;0.166;2023-09-18T08:11:56;4.13;;;1.83;;
80340;SDS011;69656;44.498;0.166;2023-09-18T08:17:30;4.83;;;1.40;;
80340;SDS011;69656;44.498;0.166;2023-09-18T08:23:01;7.10;;;2.13;;
80340;SDS011;69656;44.498;0.166;2023-09-18T08:28:34;1.90;;;1.33;;
80340;SDS011;69656;44.498;0.166;2023-09-18T08:34:07;3.97;;;1.50;;
80340;SDS011;69656;44.498;0.166;2023-09-18T08:39:40;2.07;;;1.13;;
80340;SDS011;69656;44.498;0.166;2023-09-18T08:45:14;5.87;;;1.40;;
80340;SDS011;69656;44.498;0.166;2023-09-18T08:50:45;1.27;;;1.10;;
80340;SDS011;69656;44.498;0.166;2023-09-18T08:56:17;2.60;;;1.00;;
80340;SDS011;69656;44.498;0.166;2023-09-18T09:01:50;6.83;;;1.03;;
80340;SDS011;69656;44.498;0.166;2023-09-18T09:07:23;3.83;;;1.43;;
80340;SDS011;69656;44.498;0.166;2023-09-18T09:12:56;4.83;;;1.10;;
80340;SDS011;69656;44.498;0.166;2023-09-18T09:18:29;2.63;;;1.00;;
80340;SDS011;69656;44.498;0.166;2023-09-18T09:24:02;2.57;;;1.10;;
80340;SDS011;69656;44.498;0.166;2023-09-18T09:29:35;3.10;;;0.90;;
80340;SDS011;69656;44.498;0.166;2023-09-18T09:35:07;1.67;;;0.93;;
80340;SDS011;69656;44.498;0.166;2023-09-18T09:40:41;2.63;;;1.10;;
80340;SDS011;69656;44.498;0.166;2023-09-18T09:46:15;0.97;;;0.90;;
80340;SDS011;69656;44.498;0.166;2023-09-18T09:51:48;4.63;;;0.90;;
80340;SDS011;69656;44.498;0.166;2023-09-18T09:57:21;1.80;;;1.20;;
80340;SDS011;69656;44.498;0.166;2023-09-18T10:02:56;1.13;;;0.80;;
80340;SDS011;69656;44.498;0.166;2023-09-18T10:08:28;3.13;;;0.70;;
80340;SDS011;69656;44.498;0.166;2023-09-18T10:14:02;3.73;;;1.00;;
80340;SDS011;69656;44.498;0.166;2023-09-18T10:19:37;3.53;;;0.87;;
80340;SDS011;69656;44.498;0.166;2023-09-18T10:25:07;0.77;;;0.60;;
80340;SDS011;69656;44.498;0.166;2023-09-18T10:30:39;3.60;;;0.43;;
80340;SDS011;69656;44.498;0.166;2023-09-18T10:36:10;0.70;;;0.50;;
80340;SDS011;69656;44.498;0.166;2023-09-18T10:41:43;2.67;;;0.47;;
80340;SDS011;69656;44.498;0.166;2023-09-18T10:47:15;3.90;;;0.37;;
80340;SDS011;69656;44.498;0.166;2023-09-18T10:52:48;2.20;;;0.70;;
80340;SDS011;69656;44.498;0.166;2023-09-18T10:58:23;1.13;;;0.30;;
80340;SDS011;69656;44.498;0.166;2023-09-18T11:03:57;0.63;;;0.60;;
80340;SDS011;69656;44.498;0.166;2023-09-18T11:09:27;3.07;;;0.83;;
80340;SDS011;69656;44.498;0.166;2023-09-18T11:14:59;0.73;;;0.37;;
80340;SDS011;69656;44.498;0.166;2023-09-18T11:20:32;1.73;;;0.43;;
80340;SDS011;69656;44.498;0.166;2023-09-18T11:26:04;1.17;;;0.90;;
80340;SDS011;69656;44.498;0.166;2023-09-18T11:31:44;1.53;;;0.50;;
80340;SDS011;69656;44.498;0.166;2023-09-18T11:42:43;0.60;;;0.47;;
80340;SDS011;69656;44.498;0.166;2023-09-18T11:48:13;3.47;;;0.83;;
80340;SDS011;69656;44.498;0.166;2023-09-18T11:53:46;1.83;;;0.50;;
80340;SDS011;69656;44.498;0.166;2023-09-18T11:59:19;0.60;;;0.60;;
80340;SDS011;69656;44.498;0.166;2023-09-18T12:04:53;1.90;;;0.60;;
80340;SDS011;69656;44.498;0.166;2023-09-18T12:10:25;1.70;;;0.77;;
80340;SDS011;69656;44.498;0.166;2023-09-18T12:15:58;0.70;;;0.70;;
80340;SDS011;69656;44.498;0.166;2023-09-18T12:21:30;3.17;;;0.93;;
80340;SDS011;69656;44.498;0.166;2023-09-18T12:27:03;0.67;;;0.30;;
80340;SDS011;69656;44.498;0.166;2023-09-18T12:32:36;1.67;;;0.73;;
80340;SDS011;69656;44.498;0.166;2023-09-18T12:38:16;0.93;;;0.30;;
80340;SDS011;69656;44.498;0.166;2023-09-18T12:43:41;2.63;;;0.40;;
80340;SDS011;69656;44.498;0.166;2023-09-18T12:49:16;2.57;;;0.90;;
80340;SDS011;69656;44.498;0.166;2023-09-18T12:54:44;4.40;;;0.60;;
80340;SDS011;69656;44.498;0.166;2023-09-18T13:00:16;3.97;;;0.60;;
80340;SDS011;69656;44.498;0.166;2023-09-18T13:05:48;4.17;;;0.67;;
80340;SDS011;69656;44.498;0.166;2023-09-18T13:11:22;3.70;;;0.77;;
80340;SDS011;69656;44.498;0.166;2023-09-18T13:17:00;3.30;;;0.70;;
80340;SDS011;69656;44.498;0.166;2023-09-18T13:22:27;3.47;;;0.90;;
80340;SDS011;69656;44.498;0.166;2023-09-18T13:28:01;0.80;;;0.67;;
80340;SDS011;69656;44.498;0.166;2023-09-18T13:33:38;1.60;;;0.67;;
80340;SDS011;69656;44.498;0.166;2023-09-18T13:39:06;1.10;;;0.67;;
80340;SDS011;69656;44.498;0.166;2023-09-18T13:44:39;4.87;;;0.73;;
80340;SDS011;69656;44.498;0.166;2023-09-18T13:50:12;2.13;;;0.90;;
80340;SDS011;69656;44.498;0.166;2023-09-18T13:55:45;2.00;;;0.87;;
80340;SDS011;69656;44.498;0.166;2023-09-18T14:01:19;1.90;;;1.07;;
80340;SDS011;69656;44.498;0.166;2023-09-18T14:06:51;2.93;;;1.10;;
80340;SDS011;69656;44.498;0.166;2023-09-18T14:12:23;7.37;;;1.10;;
80340;SDS011;69656;44.498;0.166;2023-09-18T14:17:55;5.80;;;1.83;;
80340;SDS011;69656;44.498;0.166;2023-09-18T14:23:28;4.70;;;0.73;;
80340;SDS011;69656;44.498;0.166;2023-09-18T14:29:01;6.30;;;1.00;;
80340;SDS011;69656;44.498;0.166;2023-09-18T14:34:34;6.50;;;1.00;;
80340;SDS011;69656;44.498;0.166;2023-09-18T14:40:06;4.90;;;1.00;;
80340;SDS011;69656;44.498;0.166;2023-09-18T14:45:38;2.60;;;0.80;;
80340;SDS011;69656;44.498;0.166;2023-09-18T14:51:11;1.40;;;0.20;;
80340;SDS011;69656;44.498;0.166;2023-09-18T14:56:44;4.77;;;0.70;;
80340;SDS011;69656;44.498;0.166;2023-09-18T15:02:17;2.57;;;0.50;;
80340;SDS011;69656;44.498;0.166;2023-09-18T15:07:51;0.60;;;0.57;;
80340;SDS011;69656;44.498;0.166;2023-09-18T15:13:23;1.27;;;0.60;;
80340;SDS011;69656;44.498;0.166;2023-09-18T15:18:58;5.23;;;0.60;;
80340;SDS011;69656;44.498;0.166;2023-09-18T15:24:31;0.93;;;0.30;;
80340;SDS011;69656;44.498;0.166;2023-09-18T15:30:05;0.87;;;0.40;;
80340;SDS011;69656;44.498;0.166;2023-09-18T15:35:35;1.70;;;0.43;;
80340;SDS011;69656;44.498;0.166;2023-09-18T15:41:08;1.83;;;0.40;;
80340;SDS011;69656;44.498;0.166;2023-09-18T15:46:41;4.13;;;1.47;;
80340;SDS011;69656;44.498;0.166;2023-09-18T15:52:15;2.90;;;0.97;;
80340;SDS011;69656;44.498;0.166;2023-09-18T15:57:48;1.67;;;0.50;;
80340;SDS011;69656;44.498;0.166;2023-09-18T16:03:21;4.43;;;0.93;;
80340;SDS011;69656;44.498;0.166;2023-09-18T16:08:54;1.80;;;0.30;;
80340;SDS011;69656;44.498;0.166;2023-09-18T16:14:27;0.23;;;0.23;;
80340;SDS011;69656;44.498;0.166;2023-09-18T16:20:01;0.77;;;0.40;;
80340;SDS011;69656;44.498;0.166;2023-09-18T16:25:34;2.27;;;0.33;;
80340;SDS011;69656;44.498;0.166;2023-09-18T16:31:07;1.00;;;0.40;;
80340;SDS011;69656;44.498;0.166;2023-09-18T16:36:39;0.73;;;0.30;;
80340;SDS011;69656;44.498;0.166;2023-09-18T16:42:11;0.90;;;0.40;;
80340;SDS011;69656;44.498;0.166;2023-09-18T16:47:45;0.53;;;0.40;;
80340;SDS011;69656;44.498;0.166;2023-09-18T16:53:19;0.40;;;0.40;;
80340;SDS011;69656;44.498;0.166;2023-09-18T16:58:51;1.40;;;0.47;;
80340;SDS011;69656;44.498;0.166;2023-09-18T17:04:24;4.23;;;0.63;;
80340;SDS011;69656;44.498;0.166;2023-09-18T17:09:56;1.17;;;0.40;;
80340;SDS011;69656;44.498;0.166;2023-09-18T17:15:29;1.90;;;0.70;;
80340;SDS011;69656;44.498;0.166;2023-09-18T17:21:03;4.80;;;0.77;;
80340;SDS011;69656;44.498;0.166;2023-09-18T17:26:36;3.97;;;0.50;;
80340;SDS011;69656;44.498;0.166;2023-09-18T17:32:09;0.87;;;0.30;;
80340;SDS011;69656;44.498;0.166;2023-09-18T17:37:41;6.27;;;0.90;;
80340;SDS011;69656;44.498;0.166;2023-09-18T17:43:14;4.93;;;0.60;;
80340;SDS011;69656;44.498;0.166;2023-09-18T17:48:47;1.50;;;0.67;;
80340;SDS011;69656;44.498;0.166;2023-09-18T17:54:20;2.50;;;0.80;;
80340;SDS011;69656;44.498;0.166;2023-09-18T17:59:52;4.10;;;0.70;;
80340;SDS011;69656;44.498;0.166;2023-09-18T18:05:25;2.87;;;1.00;;
80340;SDS011;69656;44.498;0.166;2023-09-18T18:10:59;4.07;;;1.00;;
80340;SDS011;69656;44.498;0.166;2023-09-18T18:16:31;4.30;;;1.00;;
80340;SDS011;69656;44.498;0.166;2023-09-18T18:22:04;2.07;;;0.77;;
80340;SDS011;69656;44.498;0.166;2023-09-18T18:27:36;1.57;;;0.80;;
80340;SDS011;69656;44.498;0.166;2023-09-18T18:33:10;3.83;;;0.73;;
80340;SDS011;69656;44.498;0.166;2023-09-18T18:38:43;2.63;;;1.10;;
80340;SDS011;69656;44.498;0.166;2023-09-18T18:44:16;2.97;;;1.10;;
80340;SDS011;69656;44.498;0.166;2023-09-18T18:49:49;1.17;;;0.80;;
80340;SDS011;69656;44.498;0.166;2023-09-18T18:55:22;2.00;;;1.00;;
80340;SDS011;69656;44.498;0.166;2023-09-18T19:00:57;2.00;;;0.90;;
80340;SDS011;69656;44.498;0.166;2023-09-18T19:06:26;3.83;;;1.20;;
80340;SDS011;69656;44.498;0.166;2023-09-18T19:11:58;4.30;;;0.87;;
80340;SDS011;69656;44.498;0.166;2023-09-18T19:17:31;3.20;;;0.80;;
80340;SDS011;69656;44.498;0.166;2023-09-18T19:23:05;7.77;;;1.33;;
80340;SDS011;69656;44.498;0.166;2023-09-18T19:28:37;2.27;;;1.00;;
80340;SDS011;69656;44.498;0.166;2023-09-18T19:34:09;4.90;;;0.80;;
80340;SDS011;69656;44.498;0.166;2023-09-18T19:39:42;9.17;;;1.80;;
80340;SDS011;69656;44.498;0.166;2023-09-18T19:45:14;2.53;;;0.80;;
80340;SDS011;69656;44.498;0.166;2023-09-18T19:50:47;4.13;;;1.30;;
80340;SDS011;69656;44.498;0.166;2023-09-18T19:56:20;5.90;;;1.40;;
80340;SDS011;69656;44.498;0.166;2023-09-18T20:01:54;2.60;;;1.20;;
80340;SDS011;69656;44.498;0.166;2023-09-18T20:07:27;5.60;;;1.03;;
80340;SDS011;69656;44.498;0.166;2023-09-18T20:13:00;7.53;;;1.50;;
80340;SDS011;69656;44.498;0.166;2023-09-18T20:18:32;8.33;;;1.47;;
80340;SDS011;69656;44.498;0.166;2023-09-18T20:24:06;3.77;;;1.90;;
80340;SDS011;69656;44.498;0.166;2023-09-18T20:29:37;11.70;;;1.87;;
80340;SDS011;69656;44.498;0.166;2023-09-18T20:35:10;4.80;;;2.27;;
80340;SDS011;69656;44.498;0.166;2023-09-18T20:40:43;5.87;;;1.43;;
80340;SDS011;69656;44.498;0.166;2023-09-18T20:46:16;13.77;;;2.13;;
80340;SDS011;69656;44.498;0.166;2023-09-18T20:51:48;11.97;;;1.80;;
80340;SDS011;69656;44.498;0.166;2023-09-18T20:57:20;9.73;;;1.57;;
80340;SDS011;69656;44.498;0.166;2023-09-18T21:02:53;7.60;;;2.10;;
80340;SDS011;69656;44.498;0.166;2023-09-18T21:08:27;9.30;;;2.20;;
80340;SDS011;69656;44.498;0.166;2023-09-18T21:13:59;6.27;;;2.30;;
80340;SDS011;69656;44.498;0.166;2023-09-18T21:19:31;8.40;;;2.53;;
80340;SDS011;69656;44.498;0.166;2023-09-18T21:25:05;5.57;;;1.93;;
80340;SDS011;69656;44.498;0.166;2023-09-18T21:30:38;12.57;;;2.73;;
80340;SDS011;69656;44.498;0.166;2023-09-18T21:36:12;7.60;;;2.13;;
80340;SDS011;69656;44.498;0.166;2023-09-18T21:41:43;11.00;;;2.57;;
80340;SDS011;69656;44.498;0.166;2023-09-18T21:47:14;10.93;;;3.53;;
80340;SDS011;69656;44.498;0.166;2023-09-18T21:52:48;14.30;;;2.70;;
80340;SDS011;69656;44.498;0.166;2023-09-18T21:58:20;7.57;;;2.50;;
80340;SDS011;69656;44.498;0.166;2023-09-18T22:03:53;14.63;;;2.63;;
80340;SDS011;69656;44.498;0.166;2023-09-18T22:09:28;11.63;;;2.37;;
80340;SDS011;69656;44.498;0.166;2023-09-18T22:14:59;7.90;;;2.63;;
80340;SDS011;69656;44.498;0.166;2023-09-18T22:20:33;15.37;;;3.53;;
80340;SDS011;69656;44.498;0.166;2023-09-18T22:26:05;13.13;;;2.73;;
80340;SDS011;69656;44.498;0.166;2023-09-18T22:31:37;22.40;;;3.07;;
80340;SDS011;69656;44.498;0.166;2023-09-18T22:37:10;9.97;;;3.07;;
80340;SDS011;69656;44.498;0.166;2023-09-18T22:59:22;9.40;;;3.03;;
80340;SDS011;69656;44.498;0.166;2023-09-18T23:04:55;7.30;;;2.87;;
80340;SDS011;69656;44.498;0.166;2023-09-18T23:10:27;13.27;;;2.70;;
80340;SDS011;69656;44.498;0.166;2023-09-18T23:16:01;16.13;;;2.90;;
80340;SDS011;69656;44.498;0.166;2023-09-18T23:21:32;13.27;;;3.13;;
80340;SDS011;69656;44.498;0.166;2023-09-18T23:27:04;16.50;;;2.53;;
80340;SDS011;69656;44.498;0.166;2023-09-18T23:32:38;16.30;;;3.30;;
80340;SDS011;69656;44.498;0.166;2023-09-18T23:38:10;13.60;;;3.43;;
80340;SDS011;69656;44.498;0.166;2023-09-18T23:43:42;13.67;;;3.00;;
80340;SDS011;69656;44.498;0.166;2023-09-18T23:49:14;6.77;;;2.50;;
80340;SDS011;69656;44.498;0.166;2023-09-18T23:54:48;26.20;;;3.50;;
